sensor_id;sensor_type;location;lat;lon;timestamp;temperature;humidity
22071;DHT22;11200;51.488;6.668;2023-04-15T05:54:38;5.90;99.90
22071;DHT22;11200;51.488;6.668;2023-04-15T05:57:03;6.50;99.90
22071;DHT22;11200;51.488;6.668;2023-04-15T05:59:29;5.80;99.90
22071;DHT22;11200;51.488;6.668;2023-04-15T06:01:55;6.90;99.90
22071;DHT22;11200;51.488;6.668;2023-04-15T06:04:21;7.20;99.90
22071;DHT22;11200;51.488;6.668;2023-04-15T06:06:47;5.80;99.90
22071;DHT22;11200;51.488;6.668;2023-04-15T06:09:12;7.10;99.90
22071;DHT22;11200;51.488;6.668;2023-04-15T06:11:38;6.90;99.90
22071;DHT22;11200;51.488;6.668;2023-04-15T06:14:05;6.90;99.90
22071;DHT22;11200;51.488;6.668;2023-04-15T06:16:31;7.10;99.90
22071;DHT22;11200;51.488;6.668;2023-04-15T06:18:56;7.20;99.90
22071;DHT22;11200;51.488;6.668;2023-04-15T06:21:22;6.10;99.90
22071;DHT22;11200;51.488;6.668;2023-04-15T06:23:47;7.70;99.90
22071;DHT22;11200;51.488;6.668;2023-04-15T06:26:13;7.40;99.90
22071;DHT22;11200;51.488;6.668;2023-04-15T06:28:39;7.60;99.90
22071;DHT22;11200;51.488;6.668;2023-04-15T06:31:04;7.60;99.90
22071;DHT22;11200;51.488;6.668;2023-04-15T06:33:30;7.40;99.90
22071;DHT22;11200;51.488;6.668;2023-04-15T06:35:56;7.30;99.90
22071;DHT22;11200;51.488;6.668;2023-04-15T06:38:22;7.80;99.90
22071;DHT22;11200;51.488;6.668;2023-04-15T06:40:47;7.70;99.90
22071;DHT22;11200;51.488;6.668;2023-04-15T06:43:13;7.90;99.90
22071;DHT22;11200;51.488;6.668;2023-04-15T06:45:39;7.90;99.90
22071;DHT22;11200;51.488;6.668;2023-04-15T06:48:05;7.00;99.90
22071;DHT22;11200;51.488;6.668;2023-04-15T06:50:34;7.20;99.90
22071;DHT22;11200;51.488;6.668;2023-04-15T06:53:00;8.00;99.90
22071;DHT22;11200;51.488;6.668;2023-04-15T06:55:25;8.00;99.90
22071;DHT22;11200;51.488;6.668;2023-04-15T06:57:51;7.40;99.90
22071;DHT22;11200;51.488;6.668;2023-04-15T07:00:17;7.10;99.90
22071;DHT22;11200;51.488;6.668;2023-04-15T07:02:43;7.20;99.90
22071;DHT22;11200;51.488;6.668;2023-04-15T07:05:09;7.30;99.90
22071;DHT22;11200;51.488;6.668;2023-04-15T07:07:35;7.40;99.90
22071;DHT22;11200;51.488;6.668;2023-04-15T07:10:02;7.40;99.90
22071;DHT22;11200;51.488;6.668;2023-04-15T07:12:28;7.90;99.90
22071;DHT22;11200;51.488;6.668;2023-04-15T07:14:55;8.10;99.90
22071;DHT22;11200;51.488;6.668;2023-04-15T07:17:20;7.70;99.90
22071;DHT22;11200;51.488;6.668;2023-04-15T07:19:46;7.80;99.90
22071;DHT22;11200;51.488;6.668;2023-04-15T07:22:12;7.90;99.90
22071;DHT22;11200;51.488;6.668;2023-04-15T07:24:37;8.00;99.90
22071;DHT22;11200;51.488;6.668;2023-04-15T07:27:03;8.10;99.90
22071;DHT22;11200;51.488;6.668;2023-04-15T07:29:28;8.60;99.90
22071;DHT22;11200;51.488;6.668;2023-04-15T07:31:59;8.30;99.90
22071;DHT22;11200;51.488;6.668;2023-04-15T07:34:26;8.40;99.90
22071;DHT22;11200;51.488;6.668;2023-04-15T07:36:53;8.50;99.90
22071;DHT22;11200;51.488;6.668;2023-04-15T07:39:18;8.60;99.90
22071;DHT22;11200;51.488;6.668;2023-04-15T07:41:44;8.70;99.90
22071;DHT22;11200;51.488;6.668;2023-04-15T07:44:10;8.80;99.90
22071;DHT22;11200;51.488;6.668;2023-04-15T07:46:36;9.10;99.90
22071;DHT22;11200;51.488;6.668;2023-04-15T07:49:02;9.10;99.90
22071;DHT22;11200;51.488;6.668;2023-04-15T07:51:28;9.50;99.90
22071;DHT22;11200;51.488;6.668;2023-04-15T07:53:54;9.30;99.90
22071;DHT22;11200;51.488;6.668;2023-04-15T07:56:21;9.30;99.90
22071;DHT22;11200;51.488;6.668;2023-04-15T07:58:48;9.40;99.90
22071;DHT22;11200;51.488;6.668;2023-04-15T08:01:14;9.50;99.90
22071;DHT22;11200;51.488;6.668;2023-04-15T08:03:39;9.60;99.90
22071;DHT22;11200;51.488;6.668;2023-04-15T08:06:05;9.70;99.90
22071;DHT22;11200;51.488;6.668;2023-04-15T08:08:31;9.90;99.90
22071;DHT22;11200;51.488;6.668;2023-04-15T08:10:57;9.90;99.90
22071;DHT22;11200;51.488;6.668;2023-04-15T08:13:25;10.00;99.90
22071;DHT22;11200;51.488;6.668;2023-04-15T08:16:12;10.10;99.90
22071;DHT22;11200;51.488;6.668;2023-04-15T08:18:39;10.30;99.90
22071;DHT22;11200;51.488;6.668;2023-04-15T08:21:04;10.20;99.90
22071;DHT22;11200;51.488;6.668;2023-04-15T08:23:31;10.30;99.90
22071;DHT22;11200;51.488;6.668;2023-04-15T08:25:57;10.40;99.90
22071;DHT22;11200;51.488;6.668;2023-04-15T08:28:23;10.60;99.90
22071;DHT22;11200;51.488;6.668;2023-04-15T08:30:49;10.60;99.90
22071;DHT22;11200;51.488;6.668;2023-04-15T08:33:14;10.80;99.90
22071;DHT22;11200;51.488;6.668;2023-04-15T08:35:40;10.90;99.90
22071;DHT22;11200;51.488;6.668;2023-04-15T08:38:06;11.10;99.90
22071;DHT22;11200;51.488;6.668;2023-04-15T08:40:41;11.20;99.90
22071;DHT22;11200;51.488;6.668;2023-04-15T08:43:20;11.40;99.90
22071;DHT22;11200;51.488;6.668;2023-04-15T08:45:47;11.60;99.90
22071;DHT22;11200;51.488;6.668;2023-04-15T08:48:16;11.90;99.90
22071;DHT22;11200;51.488;6.668;2023-04-15T08:50:42;12.10;99.90
22071;DHT22;11200;51.488;6.668;2023-04-15T08:53:09;12.40;99.90
22071;DHT22;11200;51.488;6.668;2023-04-15T08:55:35;12.50;99.90
22071;DHT22;11200;51.488;6.668;2023-04-15T08:58:05;12.70;99.90
22071;DHT22;11200;51.488;6.668;2023-04-15T09:00:31;13.00;99.90
22071;DHT22;11200;51.488;6.668;2023-04-15T09:02:58;13.10;99.90
22071;DHT22;11200;51.488;6.668;2023-04-15T09:05:24;13.30;99.90
22071;DHT22;11200;51.488;6.668;2023-04-15T09:07:50;13.50;99.90
22071;DHT22;11200;51.488;6.668;2023-04-15T09:10:17;13.60;99.90
22071;DHT22;11200;51.488;6.668;2023-04-15T09:12:43;13.80;99.90
22071;DHT22;11200;51.488;6.668;2023-04-15T09:15:10;13.80;99.90
22071;DHT22;11200;51.488;6.668;2023-04-15T09:17:42;13.90;99.90
22071;DHT22;11200;51.488;6.668;2023-04-15T09:20:17;14.10;99.90
22071;DHT22;11200;51.488;6.668;2023-04-15T09:22:44;14.20;99.90
22071;DHT22;11200;51.488;6.668;2023-04-15T09:27:55;14.60;99.90
22071;DHT22;11200;51.488;6.668;2023-04-15T09:30:22;14.80;99.90
22071;DHT22;11200;51.488;6.668;2023-04-15T09:32:59;15.10;99.90
22071;DHT22;11200;51.488;6.668;2023-04-15T09:35:26;15.30;99.90
22071;DHT22;11200;51.488;6.668;2023-04-15T09:37:53;15.60;99.90
22071;DHT22;11200;51.488;6.668;2023-04-15T09:40:38;15.80;99.90
22071;DHT22;11200;51.488;6.668;2023-04-15T09:43:07;16.00;99.90
22071;DHT22;11200;51.488;6.668;2023-04-15T09:45:36;16.10;99.90
22071;DHT22;11200;51.488;6.668;2023-04-15T09:48:24;16.20;99.90
22071;DHT22;11200;51.488;6.668;2023-04-15T09:50:54;16.20;99.90
22071;DHT22;11200;51.488;6.668;2023-04-15T09:53:23;16.20;99.90
22071;DHT22;11200;51.488;6.668;2023-04-15T09:55:53;16.40;99.90
22071;DHT22;11200;51.488;6.668;2023-04-15T09:58:27;16.40;99.90
22071;DHT22;11200;51.488;6.668;2023-04-15T10:00:55;16.40;99.90
22071;DHT22;11200;51.488;6.668;2023-04-15T10:03:26;16.40;99.90
22071;DHT22;11200;51.488;6.668;2023-04-15T10:05:55;16.40;99.90
22071;DHT22;11200;51.488;6.668;2023-04-15T10:08:27;16.50;99.90
22071;DHT22;11200;51.488;6.668;2023-04-15T10:10:53;16.50;99.90
22071;DHT22;11200;51.488;6.668;2023-04-15T10:13:29;16.50;99.90
22071;DHT22;11200;51.488;6.668;2023-04-15T10:16:12;16.40;99.90
22071;DHT22;11200;51.488;6.668;2023-04-15T10:18:42;16.40;99.90
22071;DHT22;11200;51.488;6.668;2023-04-15T10:21:12;16.40;99.90
22071;DHT22;11200;51.488;6.668;2023-04-15T10:23:39;16.40;99.90
22071;DHT22;11200;51.488;6.668;2023-04-15T10:26:06;16.40;99.90
22071;DHT22;11200;51.488;6.668;2023-04-15T10:28:33;16.40;99.90
22071;DHT22;11200;51.488;6.668;2023-04-15T10:30:59;16.50;99.90
22071;DHT22;11200;51.488;6.668;2023-04-15T10:33:26;16.60;99.90
22071;DHT22;11200;51.488;6.668;2023-04-15T10:35:54;16.70;99.90
22071;DHT22;11200;51.488;6.668;2023-04-15T10:41:23;16.80;99.90
22071;DHT22;11200;51.488;6.668;2023-04-15T10:43:54;16.80;99.90
22071;DHT22;11200;51.488;6.668;2023-04-15T10:46:23;16.80;99.90
22071;DHT22;11200;51.488;6.668;2023-04-15T10:48:51;16.80;99.90
22071;DHT22;11200;51.488;6.668;2023-04-15T10:51:30;16.80;99.90
22071;DHT22;11200;51.488;6.668;2023-04-15T10:54:00;16.70;99.90
22071;DHT22;11200;51.488;6.668;2023-04-15T10:56:28;16.70;99.90
22071;DHT22;11200;51.488;6.668;2023-04-15T10:58:54;16.60;99.90
22071;DHT22;11200;51.488;6.668;2023-04-15T11:01:20;16.70;99.90
22071;DHT22;11200;51.488;6.668;2023-04-15T11:03:49;16.60;99.90
22071;DHT22;11200;51.488;6.668;2023-04-15T11:06:15;16.60;99.90
22071;DHT22;11200;51.488;6.668;2023-04-15T11:08:57;16.50;99.90
22071;DHT22;11200;51.488;6.668;2023-04-15T11:14:27;16.40;99.90
22071;DHT22;11200;51.488;6.668;2023-04-15T11:16:53;16.40;99.90
22071;DHT22;11200;51.488;6.668;2023-04-15T11:19:18;16.40;99.90
22071;DHT22;11200;51.488;6.668;2023-04-15T11:21:44;16.30;99.90
22071;DHT22;11200;51.488;6.668;2023-04-15T11:24:10;16.20;99.90
22071;DHT22;11200;51.488;6.668;2023-04-15T11:26:35;16.20;99.90
22071;DHT22;11200;51.488;6.668;2023-04-15T11:29:01;16.10;99.90
22071;DHT22;11200;51.488;6.668;2023-04-15T11:31:27;16.10;99.90
22071;DHT22;11200;51.488;6.668;2023-04-15T11:33:57;16.00;99.90
22071;DHT22;11200;51.488;6.668;2023-04-15T11:36:28;16.00;99.90
22071;DHT22;11200;51.488;6.668;2023-04-15T11:38:54;15.90;99.90
22071;DHT22;11200;51.488;6.668;2023-04-15T11:41:22;15.80;99.90
22071;DHT22;11200;51.488;6.668;2023-04-15T11:43:49;15.80;99.90
22071;DHT22;11200;51.488;6.668;2023-04-15T11:46:15;15.60;99.90
22071;DHT22;11200;51.488;6.668;2023-04-15T11:48:43;15.70;99.90
22071;DHT22;11200;51.488;6.668;2023-04-15T11:51:10;15.70;99.90
22071;DHT22;11200;51.488;6.668;2023-04-15T11:53:44;15.70;99.90
22071;DHT22;11200;51.488;6.668;2023-04-15T11:56:20;15.70;99.90
22071;DHT22;11200;51.488;6.668;2023-04-15T11:58:46;15.60;99.90
22071;DHT22;11200;51.488;6.668;2023-04-15T12:01:12;15.70;99.90
22071;DHT22;11200;51.488;6.668;2023-04-15T12:03:46;15.60;99.90
22071;DHT22;11200;51.488;6.668;2023-04-15T12:06:16;15.60;99.90
22071;DHT22;11200;51.488;6.668;2023-04-15T12:08:50;15.50;99.90
22071;DHT22;11200;51.488;6.668;2023-04-15T12:11:30;15.60;99.90
22071;DHT22;11200;51.488;6.668;2023-04-15T12:14:28;15.50;99.90
22071;DHT22;11200;51.488;6.668;2023-04-15T12:17:05;15.40;99.90
22071;DHT22;11200;51.488;6.668;2023-04-15T12:22:08;15.40;99.90
22071;DHT22;11200;51.488;6.668;2023-04-15T12:24:36;15.30;99.90
22071;DHT22;11200;51.488;6.668;2023-04-15T12:27:10;15.30;99.90
22071;DHT22;11200;51.488;6.668;2023-04-15T12:29:37;15.30;99.90
22071;DHT22;11200;51.488;6.668;2023-04-15T12:32:07;15.20;99.90
22071;DHT22;11200;51.488;6.668;2023-04-15T12:34:41;15.20;99.90
22071;DHT22;11200;51.488;6.668;2023-04-15T12:37:09;15.10;99.90
22071;DHT22;11200;51.488;6.668;2023-04-15T12:39:37;15.10;99.90
22071;DHT22;11200;51.488;6.668;2023-04-15T12:42:04;15.10;99.90
22071;DHT22;11200;51.488;6.668;2023-04-15T12:44:30;15.10;99.90
22071;DHT22;11200;51.488;6.668;2023-04-15T12:46:56;15.10;99.90
22071;DHT22;11200;51.488;6.668;2023-04-15T12:49:23;15.10;99.90
22071;DHT22;11200;51.488;6.668;2023-04-15T12:51:50;15.00;99.90
22071;DHT22;11200;51.488;6.668;2023-04-15T12:54:16;15.00;99.90
22071;DHT22;11200;51.488;6.668;2023-04-15T12:56:46;15.00;99.90
22071;DHT22;11200;51.488;6.668;2023-04-15T12:59:13;15.00;99.90
22071;DHT22;11200;51.488;6.668;2023-04-15T13:01:39;14.90;99.90
22071;DHT22;11200;51.488;6.668;2023-04-15T13:04:05;14.90;99.90
22071;DHT22;11200;51.488;6.668;2023-04-15T13:06:31;14.90;99.90
22071;DHT22;11200;51.488;6.668;2023-04-15T13:09:01;14.90;99.90
22071;DHT22;11200;51.488;6.668;2023-04-15T13:11:28;14.90;99.90
22071;DHT22;11200;51.488;6.668;2023-04-15T13:13:56;14.80;99.90
22071;DHT22;11200;51.488;6.668;2023-04-15T13:16:22;14.80;99.90
22071;DHT22;11200;51.488;6.668;2023-04-15T13:18:48;14.80;99.90
22071;DHT22;11200;51.488;6.668;2023-04-15T13:21:16;14.70;99.90
22071;DHT22;11200;51.488;6.668;2023-04-15T13:23:42;14.70;99.90
22071;DHT22;11200;51.488;6.668;2023-04-15T13:26:07;14.70;99.90
22071;DHT22;11200;51.488;6.668;2023-04-15T13:28:34;14.60;99.90
22071;DHT22;11200;51.488;6.668;2023-04-15T13:30:59;14.60;99.90
22071;DHT22;11200;51.488;6.668;2023-04-15T13:33:25;14.60;99.90
22071;DHT22;11200;51.488;6.668;2023-04-15T13:35:51;14.50;99.90
22071;DHT22;11200;51.488;6.668;2023-04-15T13:38:17;14.50;99.90
22071;DHT22;11200;51.488;6.668;2023-04-15T13:40:43;14.60;99.90
22071;DHT22;11200;51.488;6.668;2023-04-15T13:43:08;14.40;99.90
22071;DHT22;11200;51.488;6.668;2023-04-15T13:45:34;14.50;99.90
22071;DHT22;11200;51.488;6.668;2023-04-15T13:48:03;14.40;99.90
22071;DHT22;11200;51.488;6.668;2023-04-15T13:50:31;14.40;99.90
22071;DHT22;11200;51.488;6.668;2023-04-15T13:52:57;14.30;99.90
22071;DHT22;11200;51.488;6.668;2023-04-15T13:55:22;14.30;99.90
22071;DHT22;11200;51.488;6.668;2023-04-15T13:57:48;14.20;99.90
22071;DHT22;11200;51.488;6.668;2023-04-15T14:00:15;14.20;99.90
22071;DHT22;11200;51.488;6.668;2023-04-15T14:02:40;14.10;99.90
22071;DHT22;11200;51.488;6.668;2023-04-15T14:05:07;14.10;99.90
22071;DHT22;11200;51.488;6.668;2023-04-15T14:07:35;14.10;99.90
22071;DHT22;11200;51.488;6.668;2023-04-15T14:10:01;14.00;99.90
22071;DHT22;11200;51.488;6.668;2023-04-15T14:12:27;14.00;99.90
22071;DHT22;11200;51.488;6.668;2023-04-15T14:14:53;14.00;99.90
22071;DHT22;11200;51.488;6.668;2023-04-15T14:17:19;13.90;99.90
22071;DHT22;11200;51.488;6.668;2023-04-15T14:19:44;13.90;99.90
22071;DHT22;11200;51.488;6.668;2023-04-15T14:22:10;13.80;99.90
22071;DHT22;11200;51.488;6.668;2023-04-15T14:24:36;13.80;99.90
22071;DHT22;11200;51.488;6.668;2023-04-15T14:27:02;13.80;99.90
22071;DHT22;11200;51.488;6.668;2023-04-15T14:29:27;13.80;99.90
22071;DHT22;11200;51.488;6.668;2023-04-15T14:31:53;13.80;99.90
22071;DHT22;11200;51.488;6.668;2023-04-15T14:34:21;13.70;99.90
22071;DHT22;11200;51.488;6.668;2023-04-15T14:36:50;13.70;99.90
22071;DHT22;11200;51.488;6.668;2023-04-15T14:39:15;13.60;99.90
22071;DHT22;11200;51.488;6.668;2023-04-15T14:41:41;13.70;99.90
22071;DHT22;11200;51.488;6.668;2023-04-15T14:44:06;13.60;99.90
22071;DHT22;11200;51.488;6.668;2023-04-15T14:46:34;13.60;99.90
22071;DHT22;11200;51.488;6.668;2023-04-15T14:48:59;13.60;99.90
22071;DHT22;11200;51.488;6.668;2023-04-15T14:51:25;13.60;99.90
22071;DHT22;11200;51.488;6.668;2023-04-15T14:53:51;13.50;99.90
22071;DHT22;11200;51.488;6.668;2023-04-15T14:56:16;13.50;99.90
22071;DHT22;11200;51.488;6.668;2023-04-15T14:58:42;13.40;99.90
22071;DHT22;11200;51.488;6.668;2023-04-15T15:01:08;13.40;99.90
22071;DHT22;11200;51.488;6.668;2023-04-15T15:03:37;13.40;99.90
22071;DHT22;11200;51.488;6.668;2023-04-15T15:06:04;13.90;99.90
22071;DHT22;11200;51.488;6.668;2023-04-15T15:08:30;13.40;99.90
22071;DHT22;11200;51.488;6.668;2023-04-15T15:10:57;13.30;99.90
22071;DHT22;11200;51.488;6.668;2023-04-15T15:13:23;13.30;99.90
22071;DHT22;11200;51.488;6.668;2023-04-15T15:15:49;13.20;99.90
22071;DHT22;11200;51.488;6.668;2023-04-15T15:18:15;13.20;99.90
22071;DHT22;11200;51.488;6.668;2023-04-15T15:20:45;13.20;99.90
22071;DHT22;11200;51.488;6.668;2023-04-15T15:23:11;13.20;99.90
22071;DHT22;11200;51.488;6.668;2023-04-15T15:25:36;13.10;99.90
22071;DHT22;11200;51.488;6.668;2023-04-15T15:28:02;13.10;99.90
22071;DHT22;11200;51.488;6.668;2023-04-15T15:30:27;13.20;99.90
22071;DHT22;11200;51.488;6.668;2023-04-15T15:32:53;13.00;99.90
22071;DHT22;11200;51.488;6.668;2023-04-15T15:35:19;13.00;99.90
22071;DHT22;11200;51.488;6.668;2023-04-15T15:37:44;12.90;99.90
22071;DHT22;11200;51.488;6.668;2023-04-15T15:40:11;12.90;99.90
22071;DHT22;11200;51.488;6.668;2023-04-15T15:42:36;12.90;99.90
22071;DHT22;11200;51.488;6.668;2023-04-15T15:45:03;12.90;99.90
22071;DHT22;11200;51.488;6.668;2023-04-15T15:47:29;12.80;99.90
22071;DHT22;11200;51.488;6.668;2023-04-15T15:49:54;12.70;99.90
22071;DHT22;11200;51.488;6.668;2023-04-15T15:52:20;12.80;99.90
22071;DHT22;11200;51.488;6.668;2023-04-15T15:54:47;12.70;99.90
22071;DHT22;11200;51.488;6.668;2023-04-15T15:57:13;12.70;99.90
22071;DHT22;11200;51.488;6.668;2023-04-15T15:59:38;12.60;99.90
22071;DHT22;11200;51.488;6.668;2023-04-15T16:02:09;12.60;99.90
22071;DHT22;11200;51.488;6.668;2023-04-15T16:04:36;12.60;99.90
22071;DHT22;11200;51.488;6.668;2023-04-15T16:07:01;12.50;99.90
22071;DHT22;11200;51.488;6.668;2023-04-15T16:09:27;12.40;99.90
22071;DHT22;11200;51.488;6.668;2023-04-15T16:11:53;12.30;99.90
22071;DHT22;11200;51.488;6.668;2023-04-15T16:14:19;12.40;99.90
22071;DHT22;11200;51.488;6.668;2023-04-15T16:16:45;12.30;99.90
22071;DHT22;11200;51.488;6.668;2023-04-15T16:19:10;12.30;99.90
22071;DHT22;11200;51.488;6.668;2023-04-15T16:21:36;12.30;99.90
22071;DHT22;11200;51.488;6.668;2023-04-15T16:24:02;12.20;99.90
22071;DHT22;11200;51.488;6.668;2023-04-15T16:26:29;12.20;99.90
22071;DHT22;11200;51.488;6.668;2023-04-15T16:28:55;12.10;99.90
22071;DHT22;11200;51.488;6.668;2023-04-15T16:31:20;12.10;99.90
22071;DHT22;11200;51.488;6.668;2023-04-15T16:33:46;12.10;99.90
22071;DHT22;11200;51.488;6.668;2023-04-15T16:36:12;12.10;99.90
22071;DHT22;11200;51.488;6.668;2023-04-15T16:38:38;12.10;99.90
22071;DHT22;11200;51.488;6.668;2023-04-15T16:41:03;12.00;99.90
22071;DHT22;11200;51.488;6.668;2023-04-15T16:43:29;11.90;99.90
22071;DHT22;11200;51.488;6.668;2023-04-15T16:45:54;11.90;99.90
22071;DHT22;11200;51.488;6.668;2023-04-15T16:48:20;11.90;99.90
22071;DHT22;11200;51.488;6.668;2023-04-15T16:50:47;11.80;99.90
22071;DHT22;11200;51.488;6.668;2023-04-15T16:53:16;11.80;99.90
22071;DHT22;11200;51.488;6.668;2023-04-15T16:55:42;11.80;99.90
22071;DHT22;11200;51.488;6.668;2023-04-15T16:58:08;11.80;99.90
22071;DHT22;11200;51.488;6.668;2023-04-15T17:00:33;11.70;99.90
22071;DHT22;11200;51.488;6.668;2023-04-15T17:03:01;11.70;99.90
22071;DHT22;11200;51.488;6.668;2023-04-15T17:05:27;11.60;99.90
22071;DHT22;11200;51.488;6.668;2023-04-15T17:07:54;11.60;99.90
22071;DHT22;11200;51.488;6.668;2023-04-15T17:10:19;11.60;99.90
22071;DHT22;11200;51.488;6.668;2023-04-15T17:12:47;11.50;99.90
22071;DHT22;11200;51.488;6.668;2023-04-15T17:15:14;11.60;99.90
22071;DHT22;11200;51.488;6.668;2023-04-15T17:17:39;11.50;99.90
22071;DHT22;11200;51.488;6.668;2023-04-15T17:20:05;11.50;99.90
22071;DHT22;11200;51.488;6.668;2023-04-15T17:22:31;11.40;99.90
22071;DHT22;11200;51.488;6.668;2023-04-15T17:24:57;11.50;99.90
22071;DHT22;11200;51.488;6.668;2023-04-15T17:27:23;11.40;99.90
22071;DHT22;11200;51.488;6.668;2023-04-15T17:29:50;11.40;99.90
22071;DHT22;11200;51.488;6.668;2023-04-15T17:32:16;11.40;99.90
22071;DHT22;11200;51.488;6.668;2023-04-15T17:34:42;11.30;99.90
22071;DHT22;11200;51.488;6.668;2023-04-15T17:37:08;11.30;99.90
22071;DHT22;11200;51.488;6.668;2023-04-15T17:39:34;11.30;99.90
22071;DHT22;11200;51.488;6.668;2023-04-15T17:42:00;11.30;99.90
22071;DHT22;11200;51.488;6.668;2023-04-15T17:44:25;11.20;99.90
22071;DHT22;11200;51.488;6.668;2023-04-15T17:46:51;11.20;99.90
22071;DHT22;11200;51.488;6.668;2023-04-15T17:49:16;11.20;99.90
22071;DHT22;11200;51.488;6.668;2023-04-15T17:51:42;11.10;99.90
22071;DHT22;11200;51.488;6.668;2023-04-15T17:54:09;11.10;99.90
22071;DHT22;11200;51.488;6.668;2023-04-15T17:56:34;11.20;99.90
22071;DHT22;11200;51.488;6.668;2023-04-15T17:59:00;11.00;99.90
22071;DHT22;11200;51.488;6.668;2023-04-15T18:01:26;11.10;99.90
22071;DHT22;11200;51.488;6.668;2023-04-15T18:03:52;11.00;99.90
22071;DHT22;11200;51.488;6.668;2023-04-15T18:06:19;11.00;99.90
22071;DHT22;11200;51.488;6.668;2023-04-15T18:08:46;11.10;99.90
22071;DHT22;11200;51.488;6.668;2023-04-15T18:11:13;11.00;99.90
22071;DHT22;11200;51.488;6.668;2023-04-15T18:13:39;11.00;99.90
22071;DHT22;11200;51.488;6.668;2023-04-15T18:16:05;10.90;99.90
22071;DHT22;11200;51.488;6.668;2023-04-15T18:18:31;11.00;99.90
22071;DHT22;11200;51.488;6.668;2023-04-15T18:20:58;11.00;99.90
22071;DHT22;11200;51.488;6.668;2023-04-15T18:23:23;10.90;99.90
22071;DHT22;11200;51.488;6.668;2023-04-15T18:25:49;10.80;99.90
22071;DHT22;11200;51.488;6.668;2023-04-15T18:28:15;10.80;99.90
22071;DHT22;11200;51.488;6.668;2023-04-15T18:30:40;10.70;99.90
22071;DHT22;11200;51.488;6.668;2023-04-15T18:33:06;10.80;99.90
22071;DHT22;11200;51.488;6.668;2023-04-15T18:35:33;10.70;99.90
22071;DHT22;11200;51.488;6.668;2023-04-15T18:40:27;10.70;99.90
22071;DHT22;11200;51.488;6.668;2023-04-15T18:42:54;10.70;99.90
22071;DHT22;11200;51.488;6.668;2023-04-15T18:45:23;10.70;99.90
22071;DHT22;11200;51.488;6.668;2023-04-15T18:47:50;10.60;99.90
22071;DHT22;11200;51.488;6.668;2023-04-15T18:50:16;10.60;99.90
22071;DHT22;11200;51.488;6.668;2023-04-15T18:52:42;10.60;99.90
22071;DHT22;11200;51.488;6.668;2023-04-15T18:55:08;10.50;99.90
22071;DHT22;11200;51.488;6.668;2023-04-15T18:57:33;10.60;99.90
22071;DHT22;11200;51.488;6.668;2023-04-15T18:59:59;10.60;99.90
22071;DHT22;11200;51.488;6.668;2023-04-15T19:02:25;10.60;99.90
22071;DHT22;11200;51.488;6.668;2023-04-15T19:04:51;10.60;99.90
22071;DHT22;11200;51.488;6.668;2023-04-15T19:07:16;10.50;99.90
22071;DHT22;11200;51.488;6.668;2023-04-15T19:09:42;10.50;99.90
22071;DHT22;11200;51.488;6.668;2023-04-15T19:12:07;10.50;99.90
22071;DHT22;11200;51.488;6.668;2023-04-15T19:14:33;10.40;99.90
22071;DHT22;11200;51.488;6.668;2023-04-15T19:16:59;10.50;99.90
22071;DHT22;11200;51.488;6.668;2023-04-15T19:19:24;10.50;99.90
22071;DHT22;11200;51.488;6.668;2023-04-15T19:21:52;10.50;99.90
22071;DHT22;11200;51.488;6.668;2023-04-15T19:24:18;10.50;99.90
22071;DHT22;11200;51.488;6.668;2023-04-15T19:26:48;10.40;99.90
22071;DHT22;11200;51.488;6.668;2023-04-15T19:29:17;10.40;99.90
22071;DHT22;11200;51.488;6.668;2023-04-15T19:31:43;10.40;99.90
22071;DHT22;11200;51.488;6.668;2023-04-15T19:34:08;10.40;99.90
22071;DHT22;11200;51.488;6.668;2023-04-15T19:36:34;10.40;99.90
22071;DHT22;11200;51.488;6.668;2023-04-15T19:39:00;10.40;99.90
22071;DHT22;11200;51.488;6.668;2023-04-15T19:41:26;10.30;99.90
22071;DHT22;11200;51.488;6.668;2023-04-15T19:43:51;10.40;99.90
22071;DHT22;11200;51.488;6.668;2023-04-15T19:46:17;10.40;99.90
22071;DHT22;11200;51.488;6.668;2023-04-15T19:48:43;10.30;99.90
22071;DHT22;11200;51.488;6.668;2023-04-15T19:51:08;10.40;99.90
22071;DHT22;11200;51.488;6.668;2023-04-15T19:53:34;10.30;99.90
22071;DHT22;11200;51.488;6.668;2023-04-15T19:56:00;10.30;99.90
22071;DHT22;11200;51.488;6.668;2023-04-15T19:58:26;10.30;99.90
22071;DHT22;11200;51.488;6.668;2023-04-15T20:00:53;10.30;99.90
22071;DHT22;11200;51.488;6.668;2023-04-15T20:03:19;10.20;99.90
22071;DHT22;11200;51.488;6.668;2023-04-15T20:05:45;10.20;99.90
22071;DHT22;11200;51.488;6.668;2023-04-15T20:08:10;10.20;99.90
22071;DHT22;11200;51.488;6.668;2023-04-15T20:10:36;10.20;99.90
22071;DHT22;11200;51.488;6.668;2023-04-15T20:13:02;10.20;99.90
22071;DHT22;11200;51.488;6.668;2023-04-15T20:15:28;10.10;99.90
22071;DHT22;11200;51.488;6.668;2023-04-15T20:17:54;10.10;99.90
22071;DHT22;11200;51.488;6.668;2023-04-15T20:20:20;10.10;99.90
22071;DHT22;11200;51.488;6.668;2023-04-15T20:22:46;10.10;99.90
22071;DHT22;11200;51.488;6.668;2023-04-15T20:25:12;10.10;99.90
22071;DHT22;11200;51.488;6.668;2023-04-15T20:27:37;10.10;99.90
22071;DHT22;11200;51.488;6.668;2023-04-15T20:30:04;10.10;99.90
22071;DHT22;11200;51.488;6.668;2023-04-15T20:32:30;10.00;99.90
22071;DHT22;11200;51.488;6.668;2023-04-15T20:35:03;10.00;99.90
22071;DHT22;11200;51.488;6.668;2023-04-15T20:37:30;10.00;99.90
22071;DHT22;11200;51.488;6.668;2023-04-15T20:39:58;10.00;99.90
22071;DHT22;11200;51.488;6.668;2023-04-15T20:42:24;10.00;99.90
22071;DHT22;11200;51.488;6.668;2023-04-15T20:44:50;10.00;99.90
22071;DHT22;11200;51.488;6.668;2023-04-15T20:47:16;10.00;99.90
22071;DHT22;11200;51.488;6.668;2023-04-15T20:49:41;10.00;99.90
22071;DHT22;11200;51.488;6.668;2023-04-15T20:52:07;9.80;99.90
22071;DHT22;11200;51.488;6.668;2023-04-15T20:54:33;10.00;99.90
22071;DHT22;11200;51.488;6.668;2023-04-15T20:56:59;9.90;99.90
22071;DHT22;11200;51.488;6.668;2023-04-15T20:59:26;9.90;99.90
22071;DHT22;11200;51.488;6.668;2023-04-15T21:01:52;10.00;99.90
22071;DHT22;11200;51.488;6.668;2023-04-15T21:04:18;9.90;99.90
22071;DHT22;11200;51.488;6.668;2023-04-15T21:06:45;9.90;99.90
22071;DHT22;11200;51.488;6.668;2023-04-15T21:09:11;9.80;99.90
22071;DHT22;11200;51.488;6.668;2023-04-15T21:11:37;10.00;99.90
22071;DHT22;11200;51.488;6.668;2023-04-15T21:14:05;9.80;99.90
22071;DHT22;11200;51.488;6.668;2023-04-15T21:16:31;9.80;99.90
22071;DHT22;11200;51.488;6.668;2023-04-15T21:18:58;9.80;99.90
22071;DHT22;11200;51.488;6.668;2023-04-15T21:21:25;9.80;99.90
22071;DHT22;11200;51.488;6.668;2023-04-15T21:23:52;9.80;99.90
22071;DHT22;11200;51.488;6.668;2023-04-15T21:26:17;9.80;99.90
22071;DHT22;11200;51.488;6.668;2023-04-15T21:28:43;9.80;99.90
22071;DHT22;11200;51.488;6.668;2023-04-15T21:31:09;9.80;99.90
22071;DHT22;11200;51.488;6.668;2023-04-15T21:33:35;9.70;99.90
22071;DHT22;11200;51.488;6.668;2023-04-15T21:36:01;9.70;99.90
22071;DHT22;11200;51.488;6.668;2023-04-15T21:38:26;9.70;99.90
22071;DHT22;11200;51.488;6.668;2023-04-15T21:40:52;9.70;99.90